createdAt,value
2018-02-09T00:00:00.021Z,39.30
2018-02-09T00:01:00.023Z,39.70
2018-02-09T00:02:00.004Z,38.90
2018-02-09T00:03:00.022Z,38.30
2018-02-09T00:04:00.009Z,40.10
2018-02-09T00:05:00.006Z,41.00
2018-02-09T00:06:00.000Z,40.00
2018-02-09T00:06:59.996Z,40.30
2018-02-09T00:07:59.990Z,40.80
2018-02-09T00:08:59.990Z,39.90
2018-02-09T00:09:59.982Z,39.70
2018-02-09T00:10:59.982Z,41.40
2018-02-09T00:11:59.976Z,40.40
2018-02-09T00:12:59.968Z,39.40
2018-02-09T00:13:59.964Z,40.00
2018-02-09T00:14:59.958Z,39.20
2018-02-09T00:15:59.954Z,37.50
2018-02-09T00:16:59.949Z,39.20
2018-02-09T00:17:59.944Z,38.00
2018-02-09T00:18:59.940Z,38.60
2018-02-09T00:19:59.934Z,37.60
2018-02-09T00:20:59.930Z,38.50
2018-02-09T00:21:59.933Z,39.40
2018-02-09T00:22:59.922Z,38.90
2018-02-09T00:23:59.916Z,38.40
2018-02-09T00:24:59.912Z,39.20
2018-02-09T00:25:59.908Z,38.30
2018-02-09T00:26:59.907Z,38.90
2018-02-09T00:27:59.898Z,42.50
2018-02-09T00:28:59.894Z,44.00
2018-02-09T00:29:59.889Z,45.90
2018-02-09T00:30:59.889Z,49.10
2018-02-09T00:31:59.884Z,50.10
2018-02-09T00:32:59.874Z,50.60
2018-02-09T00:33:59.870Z,51.50
2018-02-09T00:34:59.870Z,50.10
2018-02-09T00:35:59.860Z,49.60
2018-02-09T00:36:59.856Z,47.90
2018-02-09T00:37:59.851Z,47.40
2018-02-09T00:38:59.854Z,46.60
2018-02-09T00:39:59.843Z,48.50
2018-02-09T00:40:59.836Z,47.50
2018-02-09T00:41:59.833Z,46.10
2018-02-09T00:42:59.832Z,47.70
2018-02-09T00:43:59.821Z,46.00
2018-02-09T00:44:59.817Z,45.90
2018-02-09T00:45:59.812Z,44.10
2018-02-09T00:46:59.808Z,44.10
2018-02-09T00:47:59.802Z,44.20
2018-02-09T00:48:59.797Z,41.60
2018-02-09T00:49:59.793Z,43.20
2018-02-09T00:50:59.788Z,42.10
2018-02-09T00:51:59.782Z,43.10
2018-02-09T00:52:59.782Z,43.10
2018-02-09T00:53:59.780Z,43.00
2018-02-09T00:54:59.768Z,39.90
2018-02-09T00:55:59.763Z,40.70
2018-02-09T00:56:59.759Z,41.50
2018-02-09T00:57:59.756Z,41.00
2018-02-09T00:58:59.750Z,39.40
2018-02-09T00:59:59.744Z,39.80
2018-02-09T01:00:59.739Z,39.90
2018-02-09T01:01:59.734Z,40.00
2018-02-09T01:02:59.730Z,39.80
2018-02-09T01:03:59.725Z,37.90
2018-02-09T01:04:59.720Z,36.50
2018-02-09T01:05:59.716Z,36.50
2018-02-09T01:06:59.716Z,37.20
2018-02-09T01:07:59.708Z,37.80
2018-02-09T01:08:59.702Z,37.30
2018-02-09T01:09:59.697Z,36.10
2018-02-09T01:10:59.693Z,37.20
2018-02-09T01:11:59.687Z,34.40
2018-02-09T01:12:59.682Z,35.10
2018-02-09T01:13:59.678Z,34.90
2018-02-09T01:14:59.673Z,34.70
2018-02-09T01:15:59.672Z,33.80
2018-02-09T01:16:59.663Z,32.90
2018-02-09T01:17:59.659Z,32.70
2018-02-09T01:18:59.655Z,33.90
2018-02-09T01:19:59.647Z,31.90
2018-02-09T01:20:59.649Z,32.10
2018-02-09T01:21:59.645Z,33.10
2018-02-09T01:22:59.641Z,32.00
2018-02-09T01:23:59.628Z,30.90
2018-02-09T01:24:59.626Z,30.90
2018-02-09T01:25:59.619Z,30.90
2018-02-09T01:26:59.619Z,36.00
2018-02-09T01:27:59.614Z,34.70
2018-02-09T01:28:59.609Z,36.20
2018-02-09T01:29:59.607Z,36.10
2018-02-09T01:30:59.602Z,36.10
2018-02-09T01:31:59.593Z,36.40
2018-02-09T01:32:59.590Z,37.60
2018-02-09T01:33:59.584Z,39.50
2018-02-09T01:34:59.581Z,38.10
2018-02-09T01:35:59.571Z,39.60
2018-02-09T01:36:59.572Z,38.80
2018-02-09T01:37:59.570Z,38.10
2018-02-09T01:38:59.596Z,38.40
2018-02-09T01:39:59.553Z,37.40
2018-02-09T01:40:59.554Z,37.50
2018-02-09T01:41:59.549Z,37.20
2018-02-09T01:42:59.546Z,36.70
2018-02-09T01:43:59.538Z,36.80
2018-02-09T01:44:59.532Z,36.80
2018-02-09T01:45:59.527Z,36.70
2018-02-09T01:46:59.523Z,36.20
2018-02-09T01:47:59.519Z,36.30
2018-02-09T01:48:59.515Z,35.30
2018-02-09T01:49:59.512Z,37.60
2018-02-09T01:50:59.507Z,36.60
2018-02-09T01:51:59.500Z,37.10
2018-02-09T01:52:59.498Z,35.40
2018-02-09T01:53:59.489Z,37.00
2018-02-09T01:54:59.484Z,35.60
2018-02-09T01:55:59.483Z,35.20
2018-02-09T01:56:59.476Z,35.00
2018-02-09T01:57:59.469Z,36.70
2018-02-09T01:58:59.469Z,36.00
2018-02-09T01:59:59.462Z,35.10
2018-02-09T02:00:59.457Z,37.00
2018-02-09T02:01:59.450Z,35.70
2018-02-09T02:02:59.450Z,35.70
2018-02-09T02:03:59.438Z,36.30
2018-02-09T02:04:59.433Z,36.00
2018-02-09T02:05:59.429Z,34.50
2018-02-09T02:06:59.429Z,36.30
2018-02-09T02:07:59.425Z,36.90
2018-02-09T02:08:59.416Z,36.40
2018-02-09T02:09:59.416Z,34.70
2018-02-09T02:10:59.409Z,34.80
2018-02-09T02:11:59.400Z,33.70
2018-02-09T02:12:59.401Z,33.30
2018-02-09T02:13:59.396Z,34.30
2018-02-09T02:14:59.389Z,34.50
2018-02-09T02:15:59.380Z,34.30
2018-02-09T02:16:59.375Z,36.20
2018-02-09T02:17:59.372Z,34.80
2018-02-09T02:18:59.366Z,35.00
2018-02-09T02:19:59.367Z,35.40
2018-02-09T02:20:59.362Z,35.60
2018-02-09T02:21:59.353Z,36.50
2018-02-09T02:22:59.348Z,35.60
2018-02-09T02:23:59.342Z,34.00
2018-02-09T02:24:59.340Z,34.80
2018-02-09T02:25:59.335Z,35.00
2018-02-09T02:26:59.328Z,35.00
2018-02-09T02:27:59.310Z,34.20
2018-02-09T02:28:59.301Z,34.90
2018-02-09T02:29:59.313Z,32.80
2018-02-09T02:30:59.309Z,33.60
2018-02-09T02:31:59.303Z,33.30
2018-02-09T02:32:59.299Z,33.30
2018-02-09T02:33:59.276Z,33.70
2018-02-09T02:34:59.293Z,35.80
2018-02-09T02:35:59.287Z,36.10
2018-02-09T02:36:59.265Z,33.60
2018-02-09T02:37:59.274Z,34.00
2018-02-09T02:38:59.269Z,34.10
2018-02-09T02:39:59.263Z,34.40
2018-02-09T02:40:59.246Z,34.40
2018-02-09T02:41:59.259Z,34.10
2018-02-09T02:42:59.236Z,33.40
2018-02-09T02:43:59.248Z,33.90
2018-02-09T02:44:59.226Z,34.30
2018-02-09T02:45:59.234Z,33.70
2018-02-09T02:46:59.219Z,31.50
2018-02-09T02:47:59.228Z,32.80
2018-02-09T02:48:59.219Z,32.40
2018-02-09T02:49:59.213Z,33.60
2018-02-09T02:50:59.195Z,31.90
2018-02-09T02:51:59.191Z,34.10
2018-02-09T02:52:59.183Z,31.30
2018-02-09T02:53:59.177Z,32.10
2018-02-09T02:54:59.177Z,31.80
2018-02-09T02:55:59.170Z,30.90
2018-02-09T02:56:59.165Z,32.00
2018-02-09T02:57:59.181Z,31.90
2018-02-09T02:58:59.156Z,29.50
2018-02-09T02:59:59.165Z,29.20
2018-02-09T03:00:59.161Z,29.30
2018-02-09T03:01:59.156Z,30.40
2018-02-09T03:02:59.150Z,29.70
2018-02-09T03:03:59.144Z,30.40
2018-02-09T03:04:59.140Z,29.50
2018-02-09T03:05:59.135Z,29.20
2018-02-09T03:06:59.130Z,29.90
2018-02-09T03:07:59.124Z,28.70
2018-02-09T03:08:59.119Z,27.50
2018-02-09T03:09:59.114Z,27.70
2018-02-09T03:10:59.109Z,27.20
2018-02-09T03:11:59.103Z,26.70
2018-02-09T03:12:59.098Z,25.90
2018-02-09T03:13:59.093Z,24.30
2018-02-09T03:14:59.089Z,23.60
2018-02-09T03:15:59.083Z,23.40
2018-02-09T03:16:59.074Z,25.60
2018-02-09T03:17:59.073Z,23.10
2018-02-09T03:18:59.068Z,23.70
2018-02-09T03:19:59.061Z,22.80
2018-02-09T03:20:59.057Z,21.90
2018-02-09T03:21:59.048Z,20.40
2018-02-09T03:22:59.047Z,21.20
2018-02-09T03:23:59.041Z,20.70
2018-02-09T03:24:59.036Z,19.80
2018-02-09T03:25:59.031Z,19.90
2018-02-09T03:26:59.027Z,19.10
2018-02-09T03:27:59.020Z,18.70
2018-02-09T03:28:59.015Z,17.60
2018-02-09T03:29:59.010Z,18.00
2018-02-09T03:30:59.006Z,17.30
2018-02-09T03:31:58.999Z,17.10
2018-02-09T03:32:58.994Z,16.40
2018-02-09T03:33:58.989Z,16.80
2018-02-09T03:34:58.980Z,16.00
2018-02-09T03:35:58.974Z,16.30
2018-02-09T03:36:58.973Z,15.90
2018-02-09T03:37:58.964Z,15.70
2018-02-09T03:38:58.963Z,15.60
2018-02-09T03:39:58.957Z,15.30
2018-02-09T03:40:58.952Z,15.10
2018-02-09T03:41:58.947Z,14.20
2018-02-09T03:42:58.942Z,14.50
2018-02-09T03:43:58.936Z,15.10
2018-02-09T03:44:58.931Z,14.40
2018-02-09T03:45:58.932Z,14.40
2018-02-09T03:46:58.921Z,15.30
2018-02-09T03:47:58.916Z,15.60
2018-02-09T03:48:58.911Z,14.80
2018-02-09T03:49:58.905Z,15.60
2018-02-09T03:50:58.900Z,15.40
2018-02-09T03:51:58.890Z,15.90
2018-02-09T03:52:58.890Z,16.00
2018-02-09T03:53:58.885Z,15.20
2018-02-09T03:54:58.880Z,15.60
2018-02-09T03:55:58.874Z,16.10
2018-02-09T03:56:58.865Z,15.60
2018-02-09T03:57:58.864Z,15.60
2018-02-09T03:58:58.859Z,17.60
2018-02-09T03:59:58.853Z,15.40
2018-02-09T04:00:58.853Z,16.20
2018-02-09T04:01:58.844Z,16.60
2018-02-09T04:02:58.834Z,18.00
2018-02-09T04:03:58.832Z,16.60
2018-02-09T04:04:58.828Z,16.50
2018-02-09T04:05:58.925Z,16.70
2018-02-09T04:06:58.818Z,17.30
2018-02-09T04:07:58.812Z,18.10
2018-02-09T04:08:58.792Z,17.70
2018-02-09T04:09:58.801Z,16.80
2018-02-09T04:10:58.797Z,16.50
2018-02-09T04:11:58.791Z,17.10
2018-02-09T04:12:58.771Z,15.40
2018-02-09T04:13:58.781Z,16.30
2018-02-09T04:14:58.761Z,16.30
2018-02-09T04:15:58.770Z,17.10
2018-02-09T04:16:58.765Z,16.50
2018-02-09T04:17:58.768Z,16.40
2018-02-09T04:18:58.741Z,17.90
2018-02-09T04:19:58.737Z,16.80
2018-02-09T04:20:58.745Z,16.10
2018-02-09T04:21:58.740Z,16.50
2018-02-09T04:22:58.834Z,15.20
2018-02-09T04:23:58.714Z,16.70
2018-02-09T04:24:58.709Z,17.20
2018-02-09T04:25:58.722Z,16.90
2018-02-09T04:26:58.714Z,21.40
2018-02-09T04:27:58.708Z,17.50
2018-02-09T04:28:58.703Z,18.20
2018-02-09T04:29:58.698Z,16.60
2018-02-09T04:30:58.678Z,15.90
2018-02-09T04:31:58.687Z,17.00
2018-02-09T04:32:58.667Z,17.00
2018-02-09T04:33:58.662Z,16.40
2018-02-09T04:34:58.673Z,15.90
2018-02-09T04:35:58.651Z,20.50
2018-02-09T04:36:58.647Z,18.70
2018-02-09T04:37:58.656Z,16.70
2018-02-09T04:38:58.636Z,17.50
2018-02-09T04:39:58.630Z,18.30
2018-02-09T04:40:58.625Z,20.20
2018-02-09T04:41:58.635Z,19.20
2018-02-09T04:42:58.615Z,16.90
2018-02-09T04:43:58.609Z,17.90
2018-02-09T04:44:58.604Z,22.00
2018-02-09T04:45:58.599Z,17.20
2018-02-09T04:46:58.594Z,17.50
2018-02-09T04:47:58.588Z,17.10
2018-02-09T04:48:58.584Z,16.50
2018-02-09T04:49:58.578Z,16.50
2018-02-09T04:50:58.573Z,17.40
2018-02-09T04:51:58.567Z,17.50
2018-02-09T04:52:58.562Z,16.70
2018-02-09T04:53:58.556Z,16.50
2018-02-09T04:54:58.552Z,17.50
2018-02-09T04:55:58.546Z,16.90
2018-02-09T04:56:58.541Z,17.30
2018-02-09T04:57:58.536Z,19.80
2018-02-09T04:58:58.531Z,22.50
2018-02-09T04:59:58.524Z,17.80
2018-02-09T05:00:58.519Z,18.60
2018-02-09T05:01:58.514Z,18.30
2018-02-09T05:02:58.509Z,17.30
2018-02-09T05:03:58.502Z,19.60
2018-02-09T05:04:58.497Z,17.40
2018-02-09T05:05:58.492Z,17.10
2018-02-09T05:06:58.493Z,16.90
2018-02-09T05:07:58.481Z,21.60
2018-02-09T05:08:58.471Z,18.10
2018-02-09T05:09:58.470Z,17.50
2018-02-09T05:10:58.465Z,18.00
2018-02-09T05:11:58.459Z,16.80
2018-02-09T05:12:58.454Z,21.90
2018-02-09T05:13:58.444Z,17.80
2018-02-09T05:14:58.439Z,17.20
2018-02-09T05:15:58.436Z,17.20
2018-02-09T05:16:58.432Z,16.50
2018-02-09T05:17:58.426Z,16.60
2018-02-09T05:18:58.411Z,17.00
2018-02-09T05:19:58.429Z,16.00
2018-02-09T05:20:58.420Z,17.50
2018-02-09T05:21:58.419Z,17.10
2018-02-09T05:22:58.398Z,16.30
2018-02-09T05:23:58.398Z,16.50
2018-02-09T05:24:58.400Z,17.40
2018-02-09T05:25:58.372Z,17.50
2018-02-09T05:26:58.372Z,19.70
2018-02-09T05:27:58.375Z,18.90
2018-02-09T05:28:58.460Z,19.20
2018-02-09T05:29:58.349Z,18.20
2018-02-09T05:30:58.344Z,17.70
2018-02-09T05:31:58.358Z,17.30
2018-02-09T05:32:58.338Z,17.20
2018-02-09T05:33:58.332Z,17.80
2018-02-09T05:34:58.346Z,18.00
2018-02-09T05:35:58.340Z,18.60
2018-02-09T05:36:58.325Z,19.70
2018-02-09T05:37:58.325Z,19.60
2018-02-09T05:38:58.320Z,18.50
2018-02-09T05:39:58.293Z,18.60
2018-02-09T05:40:58.308Z,18.50
2018-02-09T05:41:58.287Z,17.30
2018-02-09T05:42:58.298Z,16.50
2018-02-09T05:43:58.277Z,17.40
2018-02-09T05:44:58.286Z,17.10
2018-02-09T05:45:58.275Z,17.40
2018-02-09T05:46:58.255Z,18.00
2018-02-09T05:47:58.269Z,18.00
2018-02-09T05:48:58.258Z,17.40
2018-02-09T05:49:58.255Z,18.00
2018-02-09T05:50:58.248Z,18.20
2018-02-09T05:51:58.245Z,18.40
2018-02-09T05:52:58.244Z,18.20
2018-02-09T05:53:58.239Z,19.20
2018-02-09T05:54:58.233Z,18.00
2018-02-09T05:55:58.231Z,19.80
2018-02-09T05:56:58.225Z,20.50
2018-02-09T05:57:58.210Z,19.80
2018-02-09T05:58:58.205Z,20.30
2018-02-09T05:59:58.204Z,21.40
2018-02-09T06:00:58.199Z,20.60
2018-02-09T06:01:58.196Z,20.30
2018-02-09T06:02:58.190Z,19.10
2018-02-09T06:03:58.186Z,20.30
2018-02-09T06:04:58.172Z,19.30
2018-02-09T06:05:58.167Z,19.50
2018-02-09T06:06:58.160Z,20.30
2018-02-09T06:07:58.163Z,20.10
2018-02-09T06:08:58.157Z,19.20
2018-02-09T06:09:58.152Z,20.60
2018-02-09T06:10:58.147Z,18.80
2018-02-09T06:11:58.132Z,18.90
2018-02-09T06:12:58.136Z,19.30
2018-02-09T06:13:58.121Z,20.30
2018-02-09T06:14:58.124Z,20.50
2018-02-09T06:15:58.114Z,19.50
2018-02-09T06:16:58.112Z,16.90
2018-02-09T06:17:58.101Z,18.30
2018-02-09T06:18:58.093Z,17.90
2018-02-09T06:19:58.086Z,17.30
2018-02-09T06:20:58.086Z,18.00
2018-02-09T06:21:58.085Z,18.40
2018-02-09T06:22:58.079Z,18.50
2018-02-09T06:23:58.068Z,18.30
2018-02-09T06:24:58.063Z,16.60
2018-02-09T06:25:58.062Z,16.90
2018-02-09T06:26:58.039Z,18.10
2018-02-09T06:27:58.046Z,17.20
2018-02-09T06:28:58.018Z,17.50
2018-02-09T06:29:58.031Z,18.10
2018-02-09T06:30:58.034Z,17.30
2018-02-09T06:31:58.022Z,17.70
2018-02-09T06:32:58.113Z,16.50
2018-02-09T06:33:58.016Z,18.00
2018-02-09T06:34:57.994Z,17.00
2018-02-09T06:35:57.978Z,16.70
2018-02-09T06:36:57.999Z,17.00
2018-02-09T06:37:57.993Z,17.50
2018-02-09T06:38:57.988Z,18.40
2018-02-09T06:39:57.954Z,17.00
2018-02-09T06:40:57.977Z,17.20
2018-02-09T06:41:57.943Z,16.90
2018-02-09T06:42:57.948Z,19.20
2018-02-09T06:43:57.950Z,18.30
2018-02-09T06:44:57.947Z,15.10
2018-02-09T06:45:57.923Z,16.70
2018-02-09T06:46:57.926Z,15.60
2018-02-09T06:47:57.910Z,16.10
2018-02-09T06:48:57.913Z,16.30
2018-02-09T06:49:57.908Z,15.20
2018-02-09T06:50:57.920Z,15.20
2018-02-09T06:51:57.904Z,14.40
2018-02-09T06:52:57.882Z,14.60
2018-02-09T06:53:57.877Z,14.60
2018-02-09T06:54:57.897Z,16.10
2018-02-09T06:55:57.890Z,14.30
2018-02-09T06:56:57.882Z,13.70
2018-02-09T06:57:57.862Z,14.20
2018-02-09T06:58:57.862Z,12.80
2018-02-09T06:59:57.850Z,12.70
2018-02-09T07:00:57.835Z,13.40
2018-02-09T07:01:57.854Z,14.80
2018-02-09T07:02:57.825Z,12.60
2018-02-09T07:03:57.838Z,11.80
2018-02-09T07:04:57.837Z,11.20
2018-02-09T07:05:57.812Z,11.70
2018-02-09T07:06:57.811Z,10.20
2018-02-09T07:07:57.819Z,10.40
2018-02-09T07:08:57.814Z,11.60
2018-02-09T07:09:57.790Z,9.80
2018-02-09T07:10:57.803Z,11.10
2018-02-09T07:11:57.772Z,9.60
2018-02-09T07:12:57.777Z,11.60
2018-02-09T07:13:57.790Z,11.30
2018-02-09T07:14:57.776Z,10.10
2018-02-09T07:15:57.756Z,10.60
2018-02-09T07:16:57.766Z,10.80
2018-02-09T07:17:57.755Z,9.60
2018-02-09T07:18:57.740Z,9.90
2018-02-09T07:19:57.752Z,12.00
2018-02-09T07:20:57.732Z,10.50
2018-02-09T07:21:57.741Z,10.80
2018-02-09T07:22:57.721Z,10.60
2018-02-09T07:23:57.714Z,10.00
2018-02-09T07:24:57.709Z,11.00
2018-02-09T07:25:57.704Z,10.30
2018-02-09T07:26:57.699Z,10.20
2018-02-09T07:27:57.703Z,11.60
2018-02-09T07:28:57.697Z,11.70
2018-02-09T07:29:57.677Z,12.50
2018-02-09T07:30:57.676Z,13.60
2018-02-09T07:31:57.670Z,16.10
2018-02-09T07:32:57.664Z,13.50
2018-02-09T07:33:57.659Z,12.50
2018-02-09T07:34:57.653Z,12.40
2018-02-09T07:35:57.647Z,14.00
2018-02-09T07:36:57.643Z,10.70
2018-02-09T07:37:57.655Z,10.80
2018-02-09T07:38:57.647Z,11.10
2018-02-09T07:39:57.625Z,10.10
2018-02-09T07:40:57.619Z,10.80
2018-02-09T07:41:57.614Z,10.50
2018-02-09T07:42:57.609Z,11.50
2018-02-09T07:43:57.598Z,11.60
2018-02-09T07:44:57.613Z,12.50
2018-02-09T07:45:57.588Z,11.00
2018-02-09T07:46:57.597Z,11.10
2018-02-09T07:47:57.580Z,11.60
2018-02-09T07:48:57.574Z,10.90
2018-02-09T07:49:57.565Z,11.90
2018-02-09T07:50:57.564Z,11.00
2018-02-09T07:51:57.553Z,10.40
2018-02-09T07:52:57.552Z,11.00
2018-02-09T07:53:57.542Z,10.40
2018-02-09T07:54:57.552Z,11.40
2018-02-09T07:55:57.545Z,11.60
2018-02-09T07:56:57.532Z,17.30
2018-02-09T07:57:57.535Z,11.30
2018-02-09T07:58:57.529Z,10.80
2018-02-09T07:59:57.523Z,11.00
2018-02-09T08:00:57.518Z,10.10
2018-02-09T08:01:57.514Z,10.60
2018-02-09T08:02:57.492Z,11.90
2018-02-09T08:03:57.501Z,11.20
2018-02-09T08:04:57.486Z,11.00
2018-02-09T08:05:57.476Z,10.50
2018-02-09T08:06:57.474Z,9.80
2018-02-09T08:07:57.468Z,10.50
2018-02-09T08:08:57.477Z,9.90
2018-02-09T08:09:57.468Z,10.00
2018-02-09T08:10:57.463Z,10.20
2018-02-09T08:11:57.467Z,10.50
2018-02-09T08:12:57.436Z,11.50
2018-02-09T08:13:57.449Z,9.60
2018-02-09T08:14:57.425Z,11.50
2018-02-09T08:15:57.427Z,10.80
2018-02-09T08:16:57.432Z,10.90
2018-02-09T08:17:57.407Z,10.70
2018-02-09T08:18:57.406Z,10.80
2018-02-09T08:19:57.390Z,12.10
2018-02-09T08:20:57.394Z,11.40
2018-02-09T08:21:57.405Z,12.40
2018-02-09T08:22:57.380Z,13.10
2018-02-09T08:23:57.372Z,13.70
2018-02-09T08:24:57.377Z,13.20
2018-02-09T08:25:57.457Z,12.70
2018-02-09T08:26:57.356Z,15.70
2018-02-09T08:27:57.365Z,13.80
2018-02-09T08:28:57.359Z,17.20
2018-02-09T08:29:57.349Z,13.20
2018-02-09T08:30:57.349Z,14.60
2018-02-09T08:31:57.423Z,13.70
2018-02-09T08:32:57.323Z,13.80
2018-02-09T08:33:57.317Z,13.30
2018-02-09T08:34:57.316Z,13.60
2018-02-09T08:35:57.320Z,12.90
2018-02-09T08:36:57.296Z,12.00
2018-02-09T08:37:57.294Z,12.20
2018-02-09T08:38:57.304Z,12.70
2018-02-09T08:39:57.288Z,14.70
2018-02-09T08:40:57.287Z,14.00
2018-02-09T08:41:57.272Z,13.30
2018-02-09T08:42:57.261Z,14.40
2018-02-09T08:43:57.269Z,13.50
2018-02-09T08:44:57.250Z,13.00
2018-02-09T08:45:57.261Z,15.80
2018-02-09T08:46:57.244Z,14.10
2018-02-09T08:47:57.239Z,15.10
2018-02-09T08:48:57.227Z,14.30
2018-02-09T08:49:57.238Z,14.70
2018-02-09T08:50:57.217Z,14.80
2018-02-09T08:51:57.232Z,14.20
2018-02-09T08:52:57.231Z,14.20
2018-02-09T08:53:57.199Z,14.10
2018-02-09T08:54:57.194Z,15.50
2018-02-09T08:55:57.187Z,14.10
2018-02-09T08:56:57.191Z,16.80
2018-02-09T08:57:57.203Z,13.00
2018-02-09T08:58:57.193Z,14.10
2018-02-09T08:59:57.191Z,15.80
2018-02-09T09:00:57.176Z,14.50
2018-02-09T09:01:57.155Z,13.30
2018-02-09T09:02:57.158Z,14.30
2018-02-09T09:03:57.168Z,15.70
2018-02-09T09:04:57.137Z,18.60
2018-02-09T09:05:57.148Z,16.30
2018-02-09T09:06:57.148Z,15.20
2018-02-09T09:07:57.137Z,15.50
2018-02-09T09:08:57.140Z,15.10
2018-02-09T09:09:57.110Z,16.10
2018-02-09T09:10:57.120Z,15.70
2018-02-09T09:11:57.119Z,15.80
2018-02-09T09:12:57.091Z,17.10
2018-02-09T09:13:57.112Z,16.00
2018-02-09T09:14:57.089Z,15.50
2018-02-09T09:15:57.083Z,16.50
2018-02-09T09:16:57.094Z,15.80
2018-02-09T09:17:57.089Z,17.40
2018-02-09T09:18:57.084Z,16.30
2018-02-09T09:19:57.073Z,15.10
2018-02-09T09:20:57.055Z,14.60
2018-02-09T09:21:57.050Z,14.80
2018-02-09T09:22:57.034Z,14.50
2018-02-09T09:23:57.039Z,14.30
2018-02-09T09:24:57.032Z,16.20
2018-02-09T09:25:57.027Z,15.90
2018-02-09T09:26:57.013Z,13.90
2018-02-09T09:27:57.010Z,13.90
2018-02-09T09:28:57.009Z,13.60
2018-02-09T09:29:56.994Z,15.50
2018-02-09T09:30:56.994Z,12.70
2018-02-09T09:31:56.992Z,13.90
2018-02-09T09:32:56.986Z,13.80
2018-02-09T09:33:56.983Z,16.40
2018-02-09T09:34:56.975Z,15.40
2018-02-09T09:35:56.960Z,13.90
2018-02-09T09:36:56.964Z,14.30
2018-02-09T09:37:56.958Z,15.40
2018-02-09T09:38:56.948Z,16.70
2018-02-09T09:39:56.936Z,15.90
2018-02-09T09:40:56.941Z,14.70
2018-02-09T09:41:56.935Z,15.90
2018-02-09T09:42:56.926Z,15.50
2018-02-09T09:43:56.923Z,16.90
2018-02-09T09:44:56.918Z,16.30
2018-02-09T09:45:56.902Z,16.50
2018-02-09T09:46:56.898Z,16.50
2018-02-09T09:47:56.900Z,15.00
2018-02-09T09:48:56.895Z,14.80
2018-02-09T09:49:56.880Z,15.90
2018-02-09T09:50:56.884Z,17.40
2018-02-09T09:51:56.886Z,19.80
2018-02-09T09:52:56.880Z,19.00
2018-02-09T09:53:56.863Z,15.80
2018-02-09T09:54:56.852Z,17.90
2018-02-09T09:55:56.846Z,15.50
2018-02-09T09:56:56.867Z,17.20
2018-02-09T09:57:56.862Z,21.60
2018-02-09T09:58:56.836Z,19.90
2018-02-09T09:59:56.850Z,17.30
2018-02-09T10:00:56.828Z,17.90
2018-02-09T10:01:56.840Z,17.40
2018-02-09T10:02:56.817Z,18.90
2018-02-09T10:03:56.806Z,17.20
2018-02-09T10:04:56.802Z,17.20
2018-02-09T10:05:56.796Z,17.50
2018-02-09T10:06:56.808Z,16.50
2018-02-09T10:07:56.784Z,16.60
2018-02-09T10:08:56.779Z,20.10
2018-02-09T10:09:56.774Z,19.70
2018-02-09T10:10:56.772Z,19.70
2018-02-09T10:11:56.768Z,19.50
2018-02-09T10:12:56.757Z,19.60
2018-02-09T10:13:56.770Z,17.00
2018-02-09T10:14:56.750Z,23.80
2018-02-09T10:15:56.754Z,19.00
2018-02-09T10:16:56.748Z,16.40
2018-02-09T10:17:56.747Z,17.90
2018-02-09T10:18:56.725Z,17.60
2018-02-09T10:19:56.714Z,20.00
2018-02-09T10:20:56.709Z,18.40
2018-02-09T10:21:56.704Z,18.60
2018-02-09T10:22:56.702Z,20.60
2018-02-09T10:23:56.698Z,20.00
2018-02-09T10:24:56.687Z,19.60
2018-02-09T10:25:56.688Z,16.80
2018-02-09T10:26:56.678Z,17.50
2018-02-09T10:27:56.672Z,19.80
2018-02-09T10:28:56.671Z,21.60
2018-02-09T10:29:56.667Z,22.20
2018-02-09T10:30:56.656Z,20.10
2018-02-09T10:31:56.650Z,19.00
2018-02-09T10:32:56.649Z,23.20
2018-02-09T10:33:56.645Z,20.00
2018-02-09T10:34:56.635Z,24.00
2018-02-09T10:35:56.638Z,19.30
2018-02-09T10:36:56.630Z,23.00
2018-02-09T10:37:56.620Z,21.40
2018-02-09T10:38:56.620Z,24.70
2018-02-09T10:39:56.610Z,22.90
2018-02-09T10:40:56.604Z,24.40
2018-02-09T10:41:56.600Z,23.00
2018-02-09T10:42:56.594Z,24.70
2018-02-09T10:43:56.594Z,21.40
2018-02-09T10:44:56.584Z,24.90
2018-02-09T10:45:56.588Z,24.30
2018-02-09T10:46:56.575Z,25.70
2018-02-09T10:47:56.571Z,23.60
2018-02-09T10:48:56.563Z,26.00
2018-02-09T10:49:56.565Z,25.00
2018-02-09T10:50:56.560Z,24.30
2018-02-09T10:51:56.549Z,27.20
2018-02-09T10:52:56.549Z,23.00
2018-02-09T10:53:56.543Z,24.30
2018-02-09T10:54:56.539Z,29.60
2018-02-09T10:55:56.533Z,25.70
2018-02-09T10:56:56.528Z,32.90
2018-02-09T10:57:56.524Z,28.40
2018-02-09T10:58:56.513Z,26.20
2018-02-09T10:59:56.513Z,24.90
2018-02-09T11:00:56.508Z,24.20
2018-02-09T11:01:56.505Z,27.90
2018-02-09T11:02:56.498Z,30.20
2018-02-09T11:03:56.493Z,30.40
2018-02-09T11:04:56.491Z,27.60
2018-02-09T11:05:56.483Z,32.20
2018-02-09T11:06:56.474Z,27.60
2018-02-09T11:07:56.473Z,30.10
2018-02-09T11:08:56.468Z,27.90
2018-02-09T11:09:56.464Z,29.80
2018-02-09T11:10:56.458Z,32.30
2018-02-09T11:11:56.455Z,28.20
2018-02-09T11:12:56.448Z,28.00
2018-02-09T11:13:56.443Z,29.50
2018-02-09T11:14:56.435Z,30.10
2018-02-09T11:15:56.433Z,30.80
2018-02-09T11:16:56.429Z,31.40
2018-02-09T11:17:56.424Z,30.20
2018-02-09T11:18:56.428Z,31.50
2018-02-09T11:19:56.416Z,29.10
2018-02-09T11:20:56.410Z,27.60
2018-02-09T11:21:56.410Z,29.60
2018-02-09T11:22:56.401Z,28.00
2018-02-09T11:23:56.396Z,26.30
2018-02-09T11:24:56.393Z,30.10
2018-02-09T11:25:56.387Z,26.50
2018-02-09T11:26:56.389Z,22.70
2018-02-09T11:27:56.379Z,27.00
2018-02-09T11:28:56.377Z,25.00
2018-02-09T11:29:56.374Z,26.60
2018-02-09T11:30:56.366Z,21.10
2018-02-09T11:31:56.359Z,22.40
2018-02-09T11:32:56.368Z,22.10
2018-02-09T11:33:56.351Z,25.60
2018-02-09T11:34:56.353Z,23.20
2018-02-09T11:35:56.335Z,26.60
2018-02-09T11:36:56.341Z,29.80
2018-02-09T11:37:56.327Z,28.20
2018-02-09T11:38:56.322Z,24.60
2018-02-09T11:39:56.317Z,22.20
2018-02-09T11:40:56.322Z,23.20
2018-02-09T11:41:56.318Z,25.80
2018-02-09T11:42:56.304Z,30.20
2018-02-09T11:43:56.306Z,28.80
2018-02-09T11:44:56.305Z,28.50
2018-02-09T11:45:56.397Z,32.60
2018-02-09T11:46:56.288Z,25.80
2018-02-09T11:47:56.292Z,29.50
2018-02-09T11:48:56.284Z,27.60
2018-02-09T11:49:56.284Z,27.00
2018-02-09T11:50:56.275Z,25.90
2018-02-09T11:51:56.275Z,28.80
2018-02-09T11:52:56.268Z,27.00
2018-02-09T11:53:56.268Z,23.70
2018-02-09T11:54:56.260Z,20.30
2018-02-09T11:55:56.255Z,23.40
2018-02-09T11:56:56.255Z,22.20
2018-02-09T11:57:56.248Z,19.40
2018-02-09T11:58:56.248Z,16.80
2018-02-09T11:59:56.234Z,17.70
2018-02-09T12:00:56.240Z,16.80
2018-02-09T12:01:56.233Z,16.00
2018-02-09T12:02:56.224Z,15.00
2018-02-09T12:03:56.245Z,15.20
2018-02-09T12:04:56.220Z,16.60
2018-02-09T12:05:56.238Z,18.10
2018-02-09T12:06:56.233Z,16.60
2018-02-09T12:07:56.209Z,16.50
2018-02-09T12:08:56.222Z,16.70
2018-02-09T12:09:56.223Z,16.80
2018-02-09T12:10:56.215Z,18.50
2018-02-09T12:11:56.215Z,13.60
2018-02-09T12:12:56.211Z,13.40
2018-02-09T12:13:56.199Z,16.20
2018-02-09T12:14:56.200Z,13.20
2018-02-09T12:15:56.200Z,14.00
2018-02-09T12:16:56.197Z,12.40
2018-02-09T12:17:56.190Z,12.70
2018-02-09T12:18:56.186Z,14.80
2018-02-09T12:19:56.177Z,14.60
2018-02-09T12:20:56.183Z,13.70
2018-02-09T12:21:56.184Z,15.50
2018-02-09T12:22:56.168Z,13.00
2018-02-09T12:23:56.163Z,12.70
2018-02-09T12:24:56.166Z,14.00
2018-02-09T12:25:56.157Z,18.90
2018-02-09T12:26:56.260Z,13.00
2018-02-09T12:27:56.156Z,15.90
2018-02-09T12:28:56.152Z,12.60
2018-02-09T12:29:56.154Z,11.60
2018-02-09T12:30:56.143Z,13.20
2018-02-09T12:31:56.148Z,12.40
2018-02-09T12:32:56.145Z,13.40
2018-02-09T12:33:56.138Z,13.80
2018-02-09T12:34:56.130Z,10.80
2018-02-09T12:35:56.132Z,12.40
2018-02-09T12:36:56.129Z,13.80
2018-02-09T12:37:56.131Z,13.20
2018-02-09T12:38:56.124Z,12.20
2018-02-09T12:39:56.114Z,15.30
2018-02-09T12:40:56.118Z,10.70
2018-02-09T12:41:56.113Z,14.00
2018-02-09T12:42:56.114Z,16.50
2018-02-09T12:43:56.108Z,12.90
2018-02-09T12:44:56.290Z,15.00
2018-02-09T12:45:56.110Z,12.20
2018-02-09T12:46:56.106Z,12.30
2018-02-09T12:47:56.108Z,11.40
2018-02-09T12:48:56.103Z,10.40
2018-02-09T12:49:56.103Z,13.70
2018-02-09T12:50:56.077Z,14.20
2018-02-09T12:51:56.090Z,12.80